首页
METAR-TAF:

METAR-TAF

机场 :

臺灣桃園國際機場

臺北, 台湾

纬度: 25-05N, 经度: 121-13E, 海拔: 33米

当前天气观测

该预报发布于19分钟前的04:00 UTC
风速19节,风向东北
温度 23°C
湿度 89%
气压 1006 hPa
能见度10公里或以上
少量云层高于800英尺
多云层高于1200英尺
多云层高于2000英尺

METAR: RCTP 280400Z 04019KT 9999 FEW008 BKN012 BKN020 23/21 Q1006 NOSIG RMK A2971

时间: 12:19 (04:19 UTC)

预报

该预报发布于4小时和41分钟前的23:38 UTC
预报有效从28日的 00点(UTC)到 29日的 06点(UTC)
风速15节,风向北转东北
能见度10公里或以上
少量云层高于1200英尺
多云层高于3200英尺
短暂存在
从 28日的 00点(UTC)到 28日的 02点(UTC)
能見度: 2800
散云层高于400英尺
多云层高于600英尺
少量云层高于1200英尺, 积雨云.
雷暴, 雨
短暂存在
从 28日的 02点(UTC)到 28日的 04点(UTC)
风速10节,风向
能見度: 4000
散云层高于600英尺
多云层高于900英尺
少量云层高于1500英尺, 积雨云.
阵雨
短暂存在
从 28日的 04点(UTC)到 28日的 10点(UTC)
风速20节,风向北转东北

TAF: RCTP 272338Z 2800/2906 03015KT 9999 FEW012 BKN032 TEMPO 2800/2802 2800 TSRA SCT004 BKN006 FEW012CB TEMPO 2802/2804 36010KT 4000 SHRA SCT006 BKN009 FEW015CB TEMPO 2804/2810 03020KT

超过4000个机场的气象观测和天气预报(METAR&TAF报告)。

可查询的气象台以黄色和红色小点在地图上表示。

将鼠标移到小点上方,可查看气象台名称。

然后点击查看天气观测和预报。

如需切换地图:点击带黑十字的绿色按钮放大地图;点击带横线的绿色按钮缩小地图;或者点击绿色箭头查看邻近地区的地图。


METAR-TAF: